createdAt,value
2019-04-03T00:00:57.354Z,5.93
2019-04-03T00:04:02.697Z,7.37
2019-04-03T00:07:07.820Z,7.23
2019-04-03T00:10:12.209Z,7.23
2019-04-03T00:13:16.606Z,6.77
2019-04-03T00:16:21.249Z,6.07
2019-04-03T00:19:25.544Z,7.13
2019-04-03T00:22:30.044Z,6.90
2019-04-03T00:25:36.045Z,5.70
2019-04-03T00:28:40.276Z,7.50
2019-04-03T00:31:44.542Z,6.70
2019-04-03T00:34:48.943Z,6.20
2019-04-03T00:37:53.885Z,5.00
2019-04-03T00:40:58.379Z,6.03
2019-04-03T00:44:03.322Z,5.97
2019-04-03T00:47:07.684Z,5.60
2019-04-03T00:50:12.106Z,6.60
2019-04-03T00:53:16.411Z,6.80
2019-04-03T00:56:20.746Z,6.13
2019-04-03T00:59:26.383Z,6.20
2019-04-03T01:02:31.138Z,4.90
2019-04-03T01:05:35.530Z,6.33
2019-04-03T01:08:39.838Z,6.83
2019-04-03T01:11:44.588Z,5.60
2019-04-03T01:14:49.324Z,4.73
2019-04-03T01:17:54.036Z,5.93
2019-04-03T01:20:58.745Z,5.60
2019-04-03T01:24:03.072Z,4.93
2019-04-03T01:27:07.547Z,6.17
2019-04-03T01:30:14.020Z,5.10
2019-04-03T01:33:18.240Z,6.57
2019-04-03T01:36:22.930Z,6.40
2019-04-03T01:39:27.365Z,7.00
2019-04-03T01:42:32.084Z,8.37
2019-04-03T01:45:36.411Z,8.10
2019-04-03T01:48:41.259Z,7.27
2019-04-03T01:51:45.624Z,7.63
2019-04-03T01:54:50.182Z,8.57
2019-04-03T01:57:54.516Z,7.57
2019-04-03T02:00:59.023Z,7.23
2019-04-03T02:04:03.404Z,9.60
2019-04-03T02:07:08.043Z,8.90
2019-04-03T02:10:17.840Z,7.50
2019-04-03T02:13:22.599Z,9.67
2019-04-03T02:16:27.493Z,11.40
2019-04-03T02:19:31.842Z,10.70
2019-04-03T02:22:36.196Z,8.87
2019-04-03T02:25:40.567Z,9.67
2019-04-03T02:28:45.521Z,10.57
2019-04-03T02:31:52.715Z,11.23
2019-04-03T02:34:55.892Z,9.63
2019-04-03T02:38:00.588Z,10.17
2019-04-03T02:41:05.534Z,10.33
2019-04-03T02:44:10.198Z,11.47
2019-04-03T02:47:15.204Z,11.63
2019-04-03T02:50:25.521Z,9.07
2019-04-03T02:53:31.329Z,12.73
2019-04-03T02:56:39.667Z,10.03
2019-04-03T02:59:44.375Z,9.60
2019-04-03T03:02:48.878Z,9.30
2019-04-03T03:05:53.242Z,9.47
2019-04-03T03:08:58.562Z,11.77
2019-04-03T03:12:03.868Z,12.73
2019-04-03T03:15:11.193Z,11.20
2019-04-03T03:18:14.765Z,9.87
2019-04-03T03:21:20.508Z,10.17
2019-04-03T03:24:28.398Z,8.50
2019-04-03T03:27:31.165Z,9.53
2019-04-03T03:30:45.506Z,8.23
2019-04-03T03:33:43.595Z,9.47
2019-04-03T03:36:48.997Z,8.00
2019-04-03T03:39:53.797Z,7.30
2019-04-03T03:43:05.123Z,7.70
2019-04-03T03:46:11.381Z,5.70
2019-04-03T03:49:17.817Z,7.53
2019-04-03T03:52:22.324Z,6.80
2019-04-03T03:55:26.979Z,7.77
2019-04-03T03:58:31.603Z,6.67
2019-04-03T04:01:36.154Z,5.93
2019-04-03T04:04:41.275Z,4.73
2019-04-03T04:07:45.822Z,7.13
2019-04-03T04:10:52.299Z,6.40
2019-04-03T04:13:56.815Z,6.73
2019-04-03T04:17:01.830Z,6.13
2019-04-03T04:20:07.456Z,6.87
2019-04-03T04:23:12.071Z,5.37
2019-04-03T04:26:17.069Z,5.70
2019-04-03T04:29:24.231Z,5.77
2019-04-03T04:32:28.555Z,5.33
2019-04-03T04:35:32.884Z,7.57
2019-04-03T04:38:37.456Z,6.97
2019-04-03T04:41:42.551Z,8.30
2019-04-03T04:44:47.314Z,9.27
2019-04-03T04:47:51.615Z,8.00
2019-04-03T04:50:56.167Z,6.80
2019-04-03T04:54:01.458Z,8.07
2019-04-03T04:57:08.265Z,6.80
2019-04-03T05:00:15.114Z,6.13
2019-04-03T05:03:21.132Z,6.37
2019-04-03T05:06:28.606Z,6.67
2019-04-03T05:09:34.348Z,6.70
2019-04-03T05:12:45.312Z,6.13
2019-04-03T05:15:49.643Z,6.70
2019-04-03T05:18:54.029Z,6.17
2019-04-03T05:21:58.334Z,6.57
2019-04-03T05:25:02.848Z,6.33
2019-04-03T05:28:07.356Z,6.43
2019-04-03T05:31:12.579Z,7.43
2019-04-03T05:34:17.234Z,8.10
2019-04-03T05:37:21.551Z,6.70
2019-04-03T05:40:26.565Z,6.33
2019-04-03T05:43:31.512Z,6.87
2019-04-03T05:46:37.620Z,6.27
2019-04-03T05:49:42.394Z,6.63
2019-04-03T05:52:46.984Z,8.40
2019-04-03T05:55:51.413Z,8.67
2019-04-03T05:59:03.702Z,8.73
2019-04-03T06:02:15.083Z,7.27
2019-04-03T06:05:14.846Z,7.10
2019-04-03T06:08:19.958Z,6.90
2019-04-03T06:11:25.021Z,7.37
2019-04-03T06:14:29.714Z,6.80
2019-04-03T06:17:34.054Z,6.10
2019-04-03T06:20:38.572Z,6.13
2019-04-03T06:23:42.988Z,6.03
2019-04-03T06:26:47.714Z,6.53
2019-04-03T06:29:54.763Z,6.20
2019-04-03T06:33:00.907Z,7.73
2019-04-03T06:36:04.598Z,6.33
2019-04-03T06:39:09.763Z,8.10
2019-04-03T06:42:14.364Z,7.07
2019-04-03T06:45:19.062Z,6.57
2019-04-03T06:48:23.424Z,6.63
2019-04-03T06:51:27.855Z,7.20
2019-04-03T06:54:32.406Z,16.17
2019-04-03T06:57:39.077Z,10.73
2019-04-03T07:00:42.757Z,10.13
2019-04-03T07:03:47.467Z,10.93
2019-04-03T07:06:55.203Z,7.97
2019-04-03T07:09:58.478Z,8.83
2019-04-03T07:13:02.883Z,6.87
2019-04-03T07:16:07.584Z,9.53
2019-04-03T07:19:12.334Z,7.60
2019-04-03T07:22:35.092Z,8.57
2019-04-03T07:25:39.307Z,6.90
2019-04-03T07:28:43.639Z,7.03
2019-04-03T07:31:48.419Z,7.80
2019-04-03T07:34:53.439Z,6.53
2019-04-03T07:37:58.087Z,6.50
2019-04-03T07:41:02.929Z,5.50
2019-04-03T07:44:07.349Z,6.07
2019-04-03T07:47:11.944Z,6.47
2019-04-03T07:50:17.245Z,7.87
2019-04-03T07:53:21.871Z,8.27
2019-04-03T07:56:26.989Z,9.20
2019-04-03T07:59:33.477Z,8.83
2019-04-03T08:02:37.681Z,8.97
2019-04-03T08:05:42.070Z,9.20
2019-04-03T08:08:46.515Z,8.93
2019-04-03T08:11:51.295Z,7.70
2019-04-03T08:14:55.782Z,8.17
2019-04-03T08:18:00.377Z,8.83
2019-04-03T08:21:04.841Z,9.37
2019-04-03T08:24:09.509Z,6.83
2019-04-03T08:27:14.049Z,7.23
2019-04-03T08:30:18.542Z,7.77
2019-04-03T08:33:26.599Z,8.97
2019-04-03T08:36:28.894Z,7.97
2019-04-03T08:39:33.906Z,10.33
2019-04-03T08:42:40.672Z,11.60
2019-04-03T08:45:45.618Z,9.23
2019-04-03T08:48:49.943Z,8.87
2019-04-03T08:51:54.699Z,9.40
2019-04-03T08:54:59.642Z,10.77
2019-04-03T08:58:04.031Z,11.67
2019-04-03T09:01:10.718Z,10.70
2019-04-03T09:04:16.752Z,11.03
2019-04-03T09:07:24.516Z,12.63
2019-04-03T09:10:31.609Z,11.10
2019-04-03T09:13:35.319Z,9.93
2019-04-03T09:16:40.097Z,9.10
2019-04-03T09:19:44.874Z,8.80
2019-04-03T09:22:49.248Z,8.20
2019-04-03T09:25:53.554Z,8.77
2019-04-03T09:28:58.150Z,10.27
2019-04-03T09:32:03.082Z,9.30
2019-04-03T09:35:08.159Z,8.60
2019-04-03T09:38:13.040Z,10.37
2019-04-03T09:41:19.208Z,8.70
2019-04-03T09:44:25.465Z,10.50
2019-04-03T09:47:29.808Z,8.80
2019-04-03T09:50:34.216Z,8.13
2019-04-03T09:53:38.802Z,7.77
2019-04-03T09:56:57.210Z,8.10
2019-04-03T09:59:49.196Z,7.90
2019-04-03T10:02:53.532Z,8.30
2019-04-03T10:05:58.192Z,8.13
2019-04-03T10:09:05.870Z,7.83
2019-04-03T10:12:11.068Z,7.73
2019-04-03T10:15:18.341Z,7.50
2019-04-03T10:18:22.921Z,8.80
2019-04-03T10:21:27.556Z,7.83
2019-04-03T10:24:32.253Z,7.67
2019-04-03T10:27:37.101Z,7.40
2019-04-03T10:30:41.880Z,7.10
2019-04-03T10:33:46.875Z,8.00
2019-04-03T10:36:51.140Z,7.50
2019-04-03T10:39:55.524Z,7.60
2019-04-03T10:43:01.023Z,7.80
2019-04-03T10:46:05.794Z,7.80
2019-04-03T10:49:10.624Z,8.10
2019-04-03T10:52:15.208Z,7.73
2019-04-03T10:55:19.620Z,8.77
2019-04-03T10:58:23.948Z,8.47
2019-04-03T11:01:28.896Z,8.00
2019-04-03T11:04:33.600Z,7.77
2019-04-03T11:07:37.999Z,7.93
2019-04-03T11:10:42.397Z,7.03
2019-04-03T11:13:46.732Z,7.20
2019-04-03T11:16:51.069Z,7.97
2019-04-03T11:19:57.423Z,8.40
2019-04-03T11:23:06.800Z,9.27
2019-04-03T11:26:08.435Z,9.97
2019-04-03T11:29:12.873Z,9.50
2019-04-03T11:32:17.192Z,10.00
2019-04-03T11:35:22.412Z,8.93
2019-04-03T11:38:29.267Z,10.50
2019-04-03T11:41:32.939Z,8.80
2019-04-03T11:44:37.540Z,8.40
2019-04-03T11:47:43.244Z,10.13
2019-04-03T11:50:47.916Z,10.10
2019-04-03T11:53:52.218Z,9.97
2019-04-03T11:56:57.179Z,9.27
2019-04-03T12:00:04.376Z,8.93
2019-04-03T12:03:10.827Z,8.47
2019-04-03T12:06:16.368Z,8.37
2019-04-03T12:09:20.851Z,8.63
2019-04-03T12:12:25.452Z,8.47
2019-04-03T12:15:30.066Z,8.97
2019-04-03T12:18:37.506Z,9.00
2019-04-03T12:21:42.335Z,10.30
2019-04-03T12:24:47.361Z,8.77
2019-04-03T12:27:51.798Z,10.17
2019-04-03T12:30:57.083Z,9.57
2019-04-03T12:34:05.433Z,8.13
2019-04-03T12:37:07.504Z,8.37
2019-04-03T12:40:12.806Z,7.70
2019-04-03T12:43:17.075Z,6.90
2019-04-03T12:46:37.335Z,7.93
2019-04-03T12:49:41.797Z,7.33
2019-04-03T12:52:47.146Z,7.83
2019-04-03T12:55:51.436Z,9.77
2019-04-03T12:58:56.444Z,7.50
2019-04-03T13:02:00.692Z,7.37
2019-04-03T13:05:07.267Z,6.37
2019-04-03T13:08:12.533Z,10.03
2019-04-03T13:11:19.119Z,7.87
2019-04-03T13:14:26.442Z,8.23
2019-04-03T13:17:30.085Z,9.00
2019-04-03T13:20:36.650Z,8.80
2019-04-03T13:23:40.968Z,8.23
2019-04-03T13:26:45.286Z,8.87
2019-04-03T13:29:51.397Z,7.93
2019-04-03T13:33:05.084Z,7.53
2019-04-03T13:36:16.915Z,6.73
2019-04-03T13:39:21.442Z,8.03
2019-04-03T13:42:25.789Z,7.60
2019-04-03T13:45:32.705Z,8.83
2019-04-03T13:48:37.699Z,8.70
2019-04-03T13:51:48.995Z,8.00
2019-04-03T13:55:02.357Z,8.83
2019-04-03T13:58:07.090Z,8.07
2019-04-03T14:01:27.654Z,9.60
2019-04-03T14:04:39.338Z,11.67
2019-04-03T14:07:46.748Z,10.57
2019-04-03T14:10:51.933Z,11.23
2019-04-03T14:13:56.598Z,10.87
2019-04-03T14:17:00.985Z,9.10
2019-04-03T14:20:13.029Z,8.10
2019-04-03T14:23:18.035Z,9.10
2019-04-03T14:26:22.482Z,8.80
2019-04-03T14:29:30.866Z,8.30
2019-04-03T14:32:38.408Z,8.87
2019-04-03T14:35:50.504Z,9.97
2019-04-03T14:38:49.109Z,10.00
2019-04-03T14:41:54.759Z,9.73
2019-04-03T14:44:59.478Z,9.13
2019-04-03T14:48:04.020Z,9.23
2019-04-03T14:51:10.928Z,8.47
2019-04-03T14:54:14.533Z,9.33
2019-04-03T14:57:22.464Z,9.63
2019-04-03T15:00:30.036Z,9.50
2019-04-03T15:03:33.525Z,9.43
2019-04-03T15:06:37.058Z,10.10
2019-04-03T15:09:41.382Z,9.70
2019-04-03T15:12:45.798Z,10.63
2019-04-03T15:15:50.116Z,10.97
2019-04-03T15:18:54.746Z,9.73
2019-04-03T15:22:01.716Z,10.77
2019-04-03T15:25:05.345Z,9.07
2019-04-03T15:28:09.664Z,8.67
2019-04-03T15:31:14.934Z,9.10
2019-04-03T15:34:19.424Z,8.63
2019-04-03T15:37:24.223Z,8.80
2019-04-03T15:40:28.572Z,8.03
2019-04-03T15:43:32.897Z,10.07
2019-04-03T15:46:37.332Z,10.47
2019-04-03T15:49:41.995Z,10.87
2019-04-03T15:52:49.293Z,10.90
2019-04-03T15:55:52.865Z,10.57
2019-04-03T15:58:58.449Z,9.53
2019-04-03T16:02:03.663Z,12.43
2019-04-03T16:05:08.449Z,11.13
2019-04-03T16:08:13.586Z,10.37
2019-04-03T16:11:18.377Z,9.63
2019-04-03T16:14:22.770Z,10.53
2019-04-03T16:17:27.070Z,11.10
2019-04-03T16:20:31.413Z,10.43
2019-04-03T16:23:36.873Z,10.87
2019-04-03T16:26:41.815Z,10.40
2019-04-03T16:29:46.931Z,10.60
2019-04-03T16:32:51.932Z,13.07
2019-04-03T16:35:56.452Z,10.60
2019-04-03T16:39:01.979Z,10.93
2019-04-03T16:42:07.282Z,9.83
2019-04-03T16:45:12.598Z,11.57
2019-04-03T16:48:18.136Z,11.83
2019-04-03T16:51:22.981Z,12.57
2019-04-03T16:54:29.099Z,11.03
2019-04-03T16:57:33.387Z,10.67
2019-04-03T17:00:38.072Z,11.90
2019-04-03T17:03:43.767Z,13.07
2019-04-03T17:06:51.164Z,15.63
2019-04-03T17:09:55.558Z,12.77
2019-04-03T17:13:00.092Z,10.37
2019-04-03T17:16:04.899Z,11.90
2019-04-03T17:19:10.661Z,14.57
2019-04-03T17:22:14.985Z,15.20
2019-04-03T17:25:19.594Z,11.97
2019-04-03T17:28:26.284Z,9.93
2019-04-03T17:31:30.167Z,10.97
2019-04-03T17:34:37.102Z,11.03
2019-04-03T17:37:40.441Z,12.17
2019-04-03T17:40:44.691Z,12.70
2019-04-03T17:43:49.010Z,10.57
2019-04-03T17:46:53.358Z,12.47
2019-04-03T17:49:59.189Z,10.53
2019-04-03T17:53:06.316Z,11.13
2019-04-03T17:56:12.390Z,12.40
2019-04-03T17:59:18.086Z,10.57
2019-04-03T18:02:22.798Z,9.90
2019-04-03T18:05:28.393Z,14.53
2019-04-03T18:08:33.196Z,13.10
2019-04-03T18:11:38.363Z,15.60
2019-04-03T18:14:42.690Z,12.90
2019-04-03T18:17:47.032Z,11.30
2019-04-03T18:20:51.337Z,13.10
2019-04-03T18:23:55.709Z,12.30
2019-04-03T18:27:02.213Z,10.50
2019-04-03T18:30:11.787Z,13.30
2019-04-03T18:33:17.057Z,14.00
2019-04-03T18:36:21.960Z,10.97
2019-04-03T18:39:27.418Z,11.00
2019-04-03T18:42:31.823Z,10.90
2019-04-03T18:45:37.944Z,12.43
2019-04-03T18:48:52.803Z,14.57
2019-04-03T18:51:48.410Z,12.33
2019-04-03T18:54:52.798Z,10.80
2019-04-03T18:57:57.191Z,10.23
2019-04-03T19:01:01.777Z,11.20
2019-04-03T19:04:07.221Z,11.07
2019-04-03T19:07:15.228Z,11.90
2019-04-03T19:10:18.838Z,12.30
2019-04-03T19:13:23.245Z,12.90
2019-04-03T19:16:29.674Z,14.33
2019-04-03T19:19:34.122Z,11.40
2019-04-03T19:22:38.528Z,10.67
2019-04-03T19:25:42.852Z,11.53
2019-04-03T19:28:48.489Z,10.23
2019-04-03T19:31:53.075Z,10.90
2019-04-03T19:34:58.022Z,11.17
2019-04-03T19:38:04.589Z,11.50
2019-04-03T19:41:11.568Z,10.40
2019-04-03T19:44:16.176Z,9.93
2019-04-03T19:47:22.831Z,11.80
2019-04-03T19:50:27.630Z,12.17
2019-04-03T19:53:35.584Z,10.77
2019-04-03T19:56:38.823Z,11.23
2019-04-03T19:59:43.183Z,10.27
2019-04-03T20:02:47.984Z,12.53
2019-04-03T20:05:54.947Z,10.70
2019-04-03T20:08:59.022Z,17.80
2019-04-03T20:12:06.821Z,12.57
2019-04-03T20:15:12.601Z,12.23
2019-04-03T20:18:16.982Z,12.77
2019-04-03T20:21:21.696Z,10.23
2019-04-03T20:24:26.115Z,12.00
2019-04-03T20:27:30.523Z,13.20
2019-04-03T20:30:35.103Z,9.57
2019-04-03T20:33:42.147Z,10.63
2019-04-03T20:36:45.920Z,10.07
2019-04-03T20:39:50.647Z,8.27
2019-04-03T20:42:54.961Z,8.83
2019-04-03T20:46:00.690Z,8.80
2019-04-03T20:49:05.009Z,8.37
2019-04-03T20:52:11.537Z,9.67
2019-04-03T20:55:15.742Z,9.07
2019-04-03T20:58:20.065Z,10.87
2019-04-03T21:01:24.391Z,8.50
2019-04-03T21:04:28.838Z,8.70
2019-04-03T21:07:33.967Z,8.23
2019-04-03T21:10:38.695Z,9.83
2019-04-03T21:13:43.678Z,8.90
2019-04-03T21:16:48.464Z,8.00
2019-04-03T21:19:53.309Z,9.37
2019-04-03T21:23:02.926Z,7.67
2019-04-03T21:26:07.484Z,10.33
2019-04-03T21:29:12.972Z,11.37
2019-04-03T21:32:17.692Z,9.33
2019-04-03T21:35:22.031Z,11.00
2019-04-03T21:38:26.699Z,9.37
2019-04-03T21:41:31.466Z,7.27
2019-04-03T21:44:37.472Z,10.07
2019-04-03T21:47:42.735Z,10.07
2019-04-03T21:50:47.912Z,9.67
2019-04-03T21:53:55.831Z,8.93
2019-04-03T21:56:59.725Z,9.23
2019-04-03T22:00:06.215Z,8.13
2019-04-03T22:03:11.537Z,10.20
2019-04-03T22:06:16.032Z,9.40
2019-04-03T22:09:20.433Z,8.67
2019-04-03T22:12:25.092Z,8.20
2019-04-03T22:15:29.409Z,10.83
2019-04-03T22:18:34.837Z,10.50
2019-04-03T22:21:39.566Z,10.47
2019-04-03T22:24:46.027Z,8.97
2019-04-03T22:27:50.731Z,10.50
2019-04-03T22:30:55.077Z,11.10
2019-04-03T22:33:59.811Z,10.27
2019-04-03T22:37:04.626Z,9.43
2019-04-03T22:40:10.704Z,11.00
2019-04-03T22:43:16.204Z,11.43
2019-04-03T22:46:22.100Z,11.23
2019-04-03T22:49:27.005Z,12.47
2019-04-03T22:52:31.412Z,13.20
2019-04-03T22:55:35.740Z,11.63
2019-04-03T22:58:40.732Z,9.67
2019-04-03T23:01:45.094Z,9.67
2019-04-03T23:04:49.511Z,10.37
2019-04-03T23:07:53.889Z,11.63
2019-04-03T23:11:01.318Z,11.07
2019-04-03T23:14:07.448Z,11.50
2019-04-03T23:17:13.769Z,9.47
2019-04-03T23:20:20.073Z,8.37
2019-04-03T23:23:27.581Z,10.27
2019-04-03T23:26:32.263Z,8.63
2019-04-03T23:29:37.249Z,8.77
2019-04-03T23:32:41.577Z,9.43
2019-04-03T23:35:47.141Z,6.83
2019-04-03T23:38:52.161Z,6.87
2019-04-03T23:41:56.540Z,8.17
2019-04-03T23:45:00.926Z,7.20
2019-04-03T23:48:05.177Z,7.83
2019-04-03T23:51:10.722Z,7.40
2019-04-03T23:54:15.639Z,5.20
2019-04-03T23:57:20.268Z,7.27
